Hovedside
METAR-TAF:

METAR-TAF

Lufthavner :

Sundsvall-Härnösand, Sverige

Sundsvall Timrå lufthavn

breddegrad: 62-32N, lengdegrad: 017-27E, høyde over havet: 4 m

Gjeldene værobservasjon

Denne rapporten ble laget for 39 minutter siden, klokken 07:50 UTC
Vind 3 kt fra Nordvest
Temperatur -7°C
Luftfuktighet 93%
Trykk 1013 hPa
Sikt 10 km eller mer
Få skyer i en høyde av 1500 ft
Overskyet i en høyde av 2400 ft
lett snø

METAR: ESNN 220750Z 31003KT 9999 -SN FEW015 OVC024 M07/M08 Q1013

Tid: 09:29 (08:29 UTC)

Varsel

Denne rapporten ble laget for 2 timer og 59 minutter siden, klokken 05:30 UTC
Varsel gyldig fra 22. klokken 06 UTC til 22. klokken 15 UTC
Vind 4 kt fra Nord
Sikt 10 km eller mer
Brutte skyer i en høyde av 800 ft
lett snø
Midlertidig
fra 22. klokken 06 UTC til 22. klokken 15 UTC
Brutte skyer i en høyde av 2000 ft

TAF: ESNN 220530Z 2206/2215 36004KT 9999 -SN BKN008 TEMPO 2206/2215 BKN020

Værobservasjoner og værvarsel for over 4000 flyplasser (METAR- og TAF-rapporter).

Tilgjengelige stasjoner er representert av de røde og gule prikkene på kartet.

Hold musepekeren over prikken for å se navnet på stasjonen.

Klikk så for å se værobservasjoner og -varsler.

For å forandre kartet kan du klikke på den grønne knappen med svart kryss for å zoome inn, på den grønne knappen med strek for å zoome ut, eller på de grønne pilene for å se tilstøtende kart.


METAR-TAF: